createdAt,value
2018-10-11T00:00:29.290Z,21.37
2018-10-11T00:02:58.815Z,21.50
2018-10-11T00:05:28.038Z,23.50
2018-10-11T00:07:57.742Z,21.00
2018-10-11T00:10:27.491Z,21.90
2018-10-11T00:12:57.172Z,21.77
2018-10-11T00:15:26.421Z,23.53
2018-10-11T00:17:56.321Z,23.47
2018-10-11T00:20:25.401Z,24.97
2018-10-11T00:22:54.556Z,25.57
2018-10-11T00:25:23.829Z,26.00
2018-10-11T00:27:52.877Z,26.33
2018-10-11T00:30:22.674Z,25.20
2018-10-11T00:32:51.708Z,25.80
2018-10-11T00:35:20.884Z,27.93
2018-10-11T00:37:50.028Z,25.30
2018-10-11T00:40:19.098Z,24.97
2018-10-11T00:42:48.728Z,28.10
2018-10-11T00:45:17.875Z,27.10
2018-10-11T00:47:46.952Z,27.30
2018-10-11T00:50:16.026Z,26.33
2018-10-11T00:52:45.081Z,27.00
2018-10-11T00:55:14.182Z,29.53
2018-10-11T00:57:43.472Z,29.70
2018-10-11T01:00:12.731Z,29.50
2018-10-11T01:02:42.042Z,29.20
2018-10-11T01:05:11.181Z,29.83
2018-10-11T01:07:40.485Z,29.27
2018-10-11T01:10:09.889Z,29.33
2018-10-11T01:12:39.106Z,28.90
2018-10-11T01:15:08.239Z,30.77
2018-10-11T01:17:37.458Z,30.80
2018-10-11T01:20:06.617Z,28.50
2018-10-11T01:22:35.743Z,29.00
2018-10-11T01:25:04.874Z,28.27
2018-10-11T01:27:34.430Z,28.27
2018-10-11T01:30:03.592Z,30.47
2018-10-11T01:32:32.615Z,29.77
2018-10-11T01:35:01.816Z,31.40
2018-10-11T01:37:30.886Z,31.40
2018-10-11T01:40:00.015Z,32.43
2018-10-11T01:42:31.429Z,30.20
2018-10-11T01:45:01.301Z,31.63
2018-10-11T01:47:30.886Z,30.60
2018-10-11T01:50:00.017Z,30.47
2018-10-11T01:52:29.206Z,28.87
2018-10-11T01:54:58.325Z,30.83
2018-10-11T01:57:27.440Z,29.77
2018-10-11T01:59:56.558Z,31.83
2018-10-11T02:02:25.615Z,30.67
2018-10-11T02:04:55.224Z,29.27
2018-10-11T02:07:24.340Z,30.00
2018-10-11T02:09:53.528Z,30.60
2018-10-11T02:12:22.592Z,29.00
2018-10-11T02:14:51.656Z,32.30
2018-10-11T02:17:20.870Z,31.93
2018-10-11T02:19:49.891Z,31.40
2018-10-11T02:22:19.609Z,31.40
2018-10-11T02:24:49.975Z,30.53
2018-10-11T02:27:19.057Z,28.37
2018-10-11T02:29:48.328Z,29.93
2018-10-11T02:32:18.174Z,31.80
2018-10-11T02:34:47.289Z,30.90
2018-10-11T02:37:17.045Z,29.83
2018-10-11T02:39:46.142Z,31.93
2018-10-11T02:42:15.288Z,30.63
2018-10-11T02:44:44.401Z,32.07
2018-10-11T02:47:13.660Z,30.13
2018-10-11T02:49:43.182Z,31.67
2018-10-11T02:52:12.932Z,31.60
2018-10-11T02:54:42.673Z,30.27
2018-10-11T02:57:22.952Z,31.73
2018-10-11T02:59:52.130Z,30.60
2018-10-11T03:02:21.995Z,31.77
2018-10-11T03:04:51.325Z,28.43
2018-10-11T03:07:20.761Z,31.37
2018-10-11T03:09:49.867Z,30.10
2018-10-11T03:12:19.708Z,28.63
2018-10-11T03:14:49.408Z,28.27
2018-10-11T03:17:18.505Z,31.77
2018-10-11T03:21:17.026Z,29.20
2018-10-11T03:23:46.154Z,30.17
2018-10-11T03:26:15.248Z,27.03
2018-10-11T03:28:45.528Z,29.73
2018-10-11T03:31:14.722Z,29.40
2018-10-11T03:33:43.815Z,29.63
2018-10-11T03:36:12.887Z,30.80
2018-10-11T03:38:42.057Z,29.70
2018-10-11T03:41:11.123Z,28.87
2018-10-11T03:43:40.354Z,31.73
2018-10-11T03:46:09.452Z,28.90
2018-10-11T03:48:38.597Z,30.50
2018-10-11T03:51:08.469Z,30.87
2018-10-11T03:53:37.616Z,29.97
2018-10-11T03:56:06.933Z,29.50
2018-10-11T03:58:36.099Z,28.13
2018-10-11T04:01:05.270Z,27.07
2018-10-11T04:03:34.353Z,29.50
2018-10-11T04:06:03.431Z,27.90
2018-10-11T04:08:32.982Z,27.00
2018-10-11T04:11:02.518Z,28.67
2018-10-11T04:13:31.592Z,29.20
2018-10-11T04:16:00.641Z,30.50
2018-10-11T04:18:29.728Z,31.70
2018-10-11T04:20:58.771Z,30.10
2018-10-11T04:23:29.223Z,27.60
2018-10-11T04:25:59.027Z,28.53
2018-10-11T04:28:29.138Z,28.80
2018-10-11T04:30:59.258Z,27.37
2018-10-11T04:33:29.170Z,27.60
2018-10-11T04:35:58.777Z,27.43
2018-10-11T04:38:28.620Z,29.53
2018-10-11T04:40:57.755Z,28.23
2018-10-11T04:43:27.515Z,26.93
2018-10-11T04:45:56.608Z,29.07
2018-10-11T04:48:25.696Z,29.63
2018-10-11T04:50:54.952Z,28.93
2018-10-11T04:53:24.234Z,30.00
2018-10-11T04:55:53.421Z,29.93
2018-10-11T04:58:22.738Z,28.20
2018-10-11T05:00:51.889Z,28.87
2018-10-11T05:03:20.996Z,28.80
2018-10-11T05:05:50.162Z,28.73
2018-10-11T05:08:20.131Z,28.53
2018-10-11T05:10:49.460Z,28.90
2018-10-11T05:13:18.630Z,31.10
2018-10-11T05:15:47.717Z,29.87
2018-10-11T05:18:17.819Z,27.57
2018-10-11T05:20:46.964Z,27.60
2018-10-11T05:23:16.109Z,27.60
2018-10-11T05:25:45.283Z,26.63
2018-10-11T05:28:14.405Z,25.63
2018-10-11T05:30:45.677Z,27.23
2018-10-11T05:33:15.376Z,23.60
2018-10-11T05:35:44.540Z,24.20
2018-10-11T05:38:13.809Z,27.33
2018-10-11T05:40:42.933Z,24.40
2018-10-11T05:43:13.195Z,25.57
2018-10-11T05:45:43.908Z,28.03
2018-10-11T05:48:13.123Z,27.10
2018-10-11T05:50:42.224Z,25.50
2018-10-11T05:53:11.581Z,24.77
2018-10-11T05:55:40.787Z,24.70
2018-10-11T05:58:10.361Z,24.03
2018-10-11T06:00:40.300Z,25.37
2018-10-11T06:03:09.568Z,21.87
2018-10-11T06:05:39.475Z,23.17
2018-10-11T06:08:08.821Z,25.43
2018-10-11T06:10:41.316Z,21.70
2018-10-11T06:13:11.261Z,23.60
2018-10-11T06:15:40.984Z,22.37
2018-10-11T06:18:11.156Z,21.63
2018-10-11T06:20:40.522Z,21.50
2018-10-11T06:23:10.045Z,19.33
2018-10-11T06:25:39.427Z,22.40
2018-10-11T06:28:12.048Z,18.67
2018-10-11T06:30:41.898Z,19.97
2018-10-11T06:33:11.077Z,21.00
2018-10-11T06:35:40.271Z,16.53
2018-10-11T06:38:10.063Z,18.63
2018-10-11T06:40:40.008Z,18.40
2018-10-11T06:43:09.172Z,19.77
2018-10-11T06:45:38.425Z,17.37
2018-10-11T06:48:09.302Z,18.70
2018-10-11T06:50:39.100Z,17.17
2018-10-11T06:53:11.775Z,18.70
2018-10-11T06:55:41.084Z,19.33
2018-10-11T06:58:10.310Z,18.37
2018-10-11T07:00:40.328Z,17.70
2018-10-11T07:03:09.488Z,17.10
2018-10-11T07:05:38.599Z,17.03
2018-10-11T07:08:07.783Z,16.37
2018-10-11T07:10:36.915Z,15.13
2018-10-11T07:13:06.012Z,16.13
2018-10-11T07:15:35.738Z,17.20
2018-10-11T07:18:05.844Z,15.83
2018-10-11T07:20:35.011Z,14.93
2018-10-11T07:23:04.183Z,16.70
2018-10-11T07:25:33.408Z,14.53
2018-10-11T07:28:02.544Z,17.53
2018-10-11T07:30:31.770Z,14.13
2018-10-11T07:33:00.922Z,15.33
2018-10-11T07:35:30.258Z,13.87
2018-10-11T07:37:59.222Z,14.80
2018-10-11T07:40:28.464Z,14.20
2018-10-11T07:42:58.259Z,13.50
2018-10-11T07:45:27.385Z,12.70
2018-10-11T07:47:56.585Z,12.90
2018-10-11T07:50:25.918Z,13.40
2018-10-11T07:52:55.669Z,13.20
2018-10-11T07:55:24.718Z,12.33
2018-10-11T07:57:53.829Z,13.13
2018-10-11T08:00:22.926Z,12.77
2018-10-11T08:02:52.013Z,13.20
2018-10-11T08:06:50.600Z,13.50
2018-10-11T08:09:19.708Z,11.77
2018-10-11T08:11:49.009Z,12.67
2018-10-11T08:14:18.549Z,13.60
2018-10-11T08:16:48.224Z,13.33
2018-10-11T08:19:17.405Z,13.70
2018-10-11T08:21:46.505Z,12.67
2018-10-11T08:24:16.197Z,13.43
2018-10-11T08:26:45.274Z,13.30
2018-10-11T08:29:14.353Z,13.50
2018-10-11T08:31:43.588Z,12.87
2018-10-11T08:34:13.219Z,14.10
2018-10-11T08:36:42.347Z,13.77
2018-10-11T08:39:12.841Z,14.23
2018-10-11T08:41:42.683Z,13.30
2018-10-11T08:44:13.078Z,16.00
2018-10-11T08:46:42.403Z,14.70
2018-10-11T08:49:11.538Z,15.47
2018-10-11T08:51:40.745Z,13.50
2018-10-11T08:55:19.158Z,13.83
2018-10-11T08:57:48.193Z,14.30
2018-10-11T09:00:17.258Z,16.30
2018-10-11T09:02:46.381Z,14.43
2018-10-11T09:05:15.457Z,14.20
2018-10-11T09:07:44.820Z,14.10
2018-10-11T09:10:14.627Z,15.53
2018-10-11T09:12:43.858Z,13.47
2018-10-11T09:15:13.031Z,13.93
2018-10-11T09:17:42.141Z,13.03
2018-10-11T09:20:11.368Z,15.53
2018-10-11T09:22:40.815Z,14.07
2018-10-11T09:25:09.957Z,14.30
2018-10-11T09:27:39.040Z,13.50
2018-10-11T09:30:08.855Z,12.67
2018-10-11T09:32:38.150Z,12.60
2018-10-11T09:35:07.592Z,13.90
2018-10-11T09:37:36.954Z,12.93
2018-10-11T09:40:06.192Z,14.23
2018-10-11T09:42:35.397Z,13.33
2018-10-11T09:45:04.595Z,15.60
2018-10-11T09:47:33.796Z,14.83
2018-10-11T09:50:03.521Z,14.23
2018-10-11T09:52:32.645Z,13.20
2018-10-11T09:55:01.760Z,12.90
2018-10-11T09:57:33.836Z,12.53
2018-10-11T10:00:04.483Z,11.43
2018-10-11T10:02:33.597Z,13.97
2018-10-11T10:05:03.860Z,12.93
2018-10-11T10:07:33.085Z,14.20
2018-10-11T10:10:02.842Z,15.00
2018-10-11T10:12:32.461Z,12.77
2018-10-11T10:15:01.527Z,13.20
2018-10-11T10:17:30.754Z,12.40
2018-10-11T10:20:00.249Z,13.03
2018-10-11T10:22:29.372Z,12.87
2018-10-11T10:24:59.444Z,13.40
2018-10-11T10:27:29.364Z,13.20
2018-10-11T10:29:58.442Z,11.77
2018-10-11T10:32:27.561Z,13.60
2018-10-11T10:34:56.808Z,13.20
2018-10-11T10:37:25.914Z,12.47
2018-10-11T10:39:55.147Z,11.53
2018-10-11T10:42:24.424Z,11.40
2018-10-11T10:44:53.540Z,12.10
2018-10-11T10:47:22.738Z,11.57
2018-10-11T10:49:51.976Z,12.10
2018-10-11T10:52:21.065Z,12.40
2018-10-11T10:54:50.180Z,11.87
2018-10-11T10:57:20.041Z,12.03
2018-10-11T10:59:49.148Z,11.47
2018-10-11T11:02:18.420Z,11.83
2018-10-11T11:04:47.527Z,11.50
2018-10-11T11:07:16.775Z,10.50
2018-10-11T11:09:46.442Z,10.77
2018-10-11T11:12:15.505Z,9.67
2018-10-11T11:14:45.365Z,11.30
2018-10-11T11:17:14.572Z,9.60
2018-10-11T11:19:44.588Z,11.13
2018-10-11T11:22:13.744Z,10.30
2018-10-11T11:24:42.952Z,10.03
2018-10-11T11:27:12.167Z,10.67
2018-10-11T11:29:41.270Z,9.77
2018-10-11T11:32:10.402Z,9.00
2018-10-11T11:34:39.509Z,9.17
2018-10-11T11:37:09.234Z,9.07
2018-10-11T11:39:38.291Z,9.90
2018-10-11T11:42:07.525Z,9.73
2018-10-11T11:44:36.729Z,9.47
2018-10-11T11:47:06.176Z,7.80
2018-10-11T11:49:35.271Z,8.10
2018-10-11T11:52:04.541Z,7.17
2018-10-11T11:54:33.604Z,8.03
2018-10-11T11:57:02.672Z,8.30
2018-10-11T11:59:31.892Z,7.47
2018-10-11T12:02:01.163Z,6.77
2018-10-11T12:04:30.322Z,7.40
2018-10-11T12:06:59.488Z,7.47
2018-10-11T12:09:28.893Z,6.00
2018-10-11T12:11:58.016Z,6.73
2018-10-11T12:14:27.117Z,7.50
2018-10-11T12:16:56.900Z,5.80
2018-10-11T12:19:26.196Z,6.20
2018-10-11T12:21:56.690Z,6.00
2018-10-11T12:24:25.913Z,7.23
2018-10-11T12:26:55.154Z,7.13
2018-10-11T12:29:24.889Z,6.10
2018-10-11T12:31:54.153Z,5.97
2018-10-11T12:34:23.387Z,6.40
2018-10-11T12:36:52.667Z,6.77
2018-10-11T12:39:22.953Z,5.50
2018-10-11T12:41:52.050Z,5.47
2018-10-11T12:44:21.286Z,6.40
2018-10-11T12:46:50.504Z,6.13
2018-10-11T12:49:19.652Z,6.00
2018-10-11T12:51:48.811Z,6.10
2018-10-11T12:54:18.110Z,6.00
2018-10-11T12:56:47.474Z,6.10
2018-10-11T12:59:16.824Z,6.30
2018-10-11T13:01:46.901Z,5.63
2018-10-11T13:04:15.954Z,6.00
2018-10-11T13:06:45.045Z,5.30
2018-10-11T13:09:14.421Z,5.10
2018-10-11T13:11:43.551Z,4.93
2018-10-11T13:14:12.611Z,6.20
2018-10-11T13:16:41.793Z,5.53
2018-10-11T13:19:10.902Z,6.00
2018-10-11T13:21:40.223Z,5.57
2018-10-11T13:24:09.644Z,5.27
2018-10-11T13:26:38.789Z,5.47
2018-10-11T13:29:07.900Z,4.93
2018-10-11T13:31:37.037Z,5.80
2018-10-11T13:34:06.208Z,5.67
2018-10-11T13:36:35.393Z,5.80
2018-10-11T13:39:05.724Z,5.87
2018-10-11T13:41:35.020Z,5.50
2018-10-11T13:44:04.063Z,5.37
2018-10-11T13:46:33.288Z,5.53
2018-10-11T13:49:02.424Z,5.30
2018-10-11T13:51:31.569Z,5.03
2018-10-11T13:54:00.746Z,5.10
2018-10-11T13:56:29.834Z,5.20
2018-10-11T13:58:59.080Z,5.70
2018-10-11T14:01:28.859Z,5.10
2018-10-11T14:03:59.466Z,5.30
2018-10-11T14:06:28.577Z,5.40
2018-10-11T14:08:57.708Z,5.27
2018-10-11T14:11:27.000Z,5.30
2018-10-11T14:13:56.827Z,5.67
2018-10-11T14:16:26.663Z,5.53
2018-10-11T14:18:55.920Z,5.67
2018-10-11T14:21:25.194Z,5.20
2018-10-11T14:23:54.406Z,5.10
2018-10-11T14:27:53.144Z,5.73
2018-10-11T14:30:22.234Z,4.97
2018-10-11T14:32:51.418Z,5.83
2018-10-11T14:35:20.540Z,5.10
2018-10-11T14:37:49.733Z,5.17
2018-10-11T14:40:18.893Z,5.10
2018-10-11T14:42:48.589Z,5.33
2018-10-11T14:45:17.947Z,5.10
2018-10-11T14:47:47.250Z,5.60
2018-10-11T14:50:16.350Z,5.90
2018-10-11T14:52:45.440Z,6.20
2018-10-11T14:55:15.011Z,5.63
2018-10-11T14:57:44.086Z,6.00
2018-10-11T15:00:13.229Z,6.30
2018-10-11T15:02:43.083Z,6.20
2018-10-11T15:05:12.202Z,5.50
2018-10-11T15:07:41.283Z,5.97
2018-10-11T15:10:10.374Z,6.53
2018-10-11T15:12:39.464Z,5.80
2018-10-11T15:15:08.589Z,5.90
2018-10-11T15:17:37.816Z,6.60
2018-10-11T15:20:07.385Z,5.47
2018-10-11T15:22:36.495Z,6.60
2018-10-11T15:25:06.441Z,6.20
2018-10-11T15:27:35.651Z,6.50
2018-10-11T15:30:05.046Z,6.50
2018-10-11T15:32:34.096Z,6.30
2018-10-11T15:35:03.295Z,6.17
2018-10-11T15:37:32.937Z,6.20
2018-10-11T15:40:01.998Z,6.13
2018-10-11T15:42:32.418Z,6.30
2018-10-11T15:45:01.699Z,7.37
2018-10-11T15:47:31.610Z,6.90
2018-10-11T15:50:00.821Z,7.13
2018-10-11T15:52:30.132Z,6.20
2018-10-11T15:54:59.200Z,6.90
2018-10-11T15:57:28.979Z,6.20
2018-10-11T15:59:58.155Z,7.20
2018-10-11T16:02:27.265Z,7.07
2018-10-11T16:04:56.346Z,7.07
2018-10-11T16:07:25.564Z,7.97
2018-10-11T16:09:54.687Z,6.90
2018-10-11T16:12:23.905Z,7.30
2018-10-11T16:14:52.991Z,6.40
2018-10-11T16:17:22.979Z,7.00
2018-10-11T16:19:53.759Z,7.00
2018-10-11T16:22:22.849Z,7.23
2018-10-11T16:24:52.015Z,7.90
2018-10-11T16:27:22.421Z,7.17
2018-10-11T16:29:51.513Z,6.83
2018-10-11T16:32:20.709Z,6.37
2018-10-11T16:34:50.624Z,6.07
2018-10-11T16:37:19.745Z,6.33
2018-10-11T16:39:49.469Z,7.37
2018-10-11T16:42:18.831Z,8.00
2018-10-11T16:44:48.036Z,6.97
2018-10-11T16:47:17.088Z,7.10
2018-10-11T16:49:47.030Z,7.30
2018-10-11T16:52:16.208Z,7.50
2018-10-11T16:54:46.079Z,6.60
2018-10-11T16:57:16.292Z,7.90
2018-10-11T16:59:45.804Z,7.47
2018-10-11T17:02:15.269Z,7.53
2018-10-11T17:04:44.320Z,6.83
2018-10-11T17:07:13.383Z,8.30
2018-10-11T17:09:42.612Z,6.80
2018-10-11T17:12:11.802Z,8.47
2018-10-11T17:14:40.989Z,7.43
2018-10-11T17:17:10.100Z,8.20
2018-10-11T17:19:39.308Z,7.30
2018-10-11T17:22:08.427Z,8.00
2018-10-11T17:24:37.522Z,8.00
2018-10-11T17:27:06.826Z,7.80
2018-10-11T17:29:35.975Z,8.60
2018-10-11T17:32:05.568Z,9.00
2018-10-11T17:34:34.800Z,8.50
2018-10-11T17:37:03.911Z,8.30
2018-10-11T17:39:32.960Z,8.30
2018-10-11T17:42:02.061Z,8.80
2018-10-11T17:44:31.324Z,8.60
2018-10-11T17:47:00.433Z,8.70
2018-10-11T17:49:29.661Z,11.00
2018-10-11T17:51:58.966Z,9.53
2018-10-11T17:54:28.049Z,7.83
2018-10-11T17:56:57.596Z,8.37
2018-10-11T17:59:26.852Z,8.43
2018-10-11T18:01:55.969Z,10.07
2018-10-11T18:04:25.077Z,10.60
2018-10-11T18:06:54.270Z,10.03
2018-10-11T18:09:23.373Z,10.30
2018-10-11T18:11:52.420Z,9.93
2018-10-11T18:14:21.782Z,9.87
2018-10-11T18:18:20.335Z,9.90
2018-10-11T18:20:49.442Z,10.73
2018-10-11T18:23:18.608Z,10.93
2018-10-11T18:25:47.704Z,11.50
2018-10-11T18:28:16.959Z,10.80
2018-10-11T18:30:46.170Z,9.93
2018-10-11T18:33:16.072Z,10.93
2018-10-11T18:35:45.292Z,10.73
2018-10-11T18:38:14.249Z,10.37
2018-10-11T18:40:43.659Z,11.40
2018-10-11T18:43:12.842Z,10.80
2018-10-11T18:45:42.587Z,11.37
2018-10-11T18:48:11.805Z,12.20
2018-10-11T18:50:40.913Z,11.43
2018-10-11T18:53:10.089Z,10.70
2018-10-11T18:55:39.128Z,10.57
2018-10-11T18:58:08.448Z,12.60
2018-10-11T19:00:37.585Z,11.23
2018-10-11T19:03:06.666Z,10.50
2018-10-11T19:05:35.761Z,10.70
2018-10-11T19:08:05.004Z,10.10
2018-10-11T19:10:34.396Z,11.97
2018-10-11T19:13:04.516Z,10.00
2018-10-11T19:15:33.609Z,9.77
2018-10-11T19:18:02.717Z,9.10
2018-10-11T19:20:31.872Z,9.37
2018-10-11T19:23:00.965Z,7.93
2018-10-11T19:25:30.716Z,8.00
2018-10-11T19:28:00.257Z,7.80
2018-10-11T19:30:29.473Z,7.63
2018-10-11T19:32:58.700Z,6.60
2018-10-11T19:35:27.773Z,7.77
2018-10-11T19:39:26.496Z,8.57
2018-10-11T19:41:56.434Z,7.43
2018-10-11T19:44:25.516Z,7.23
2018-10-11T19:46:54.589Z,7.53
2018-10-11T19:49:24.446Z,6.40
2018-10-11T19:51:53.565Z,7.13
2018-10-11T19:54:22.646Z,7.93
2018-10-11T19:56:53.078Z,7.53
2018-10-11T19:59:22.181Z,7.73
2018-10-11T20:01:51.440Z,7.87
2018-10-11T20:04:20.472Z,9.30
2018-10-11T20:06:49.764Z,9.40
2018-10-11T20:09:18.839Z,8.07
2018-10-11T20:11:48.120Z,8.17
2018-10-11T20:14:17.937Z,8.20
2018-10-11T20:16:47.009Z,8.30
2018-10-11T20:19:16.198Z,9.67
2018-10-11T20:21:45.457Z,9.33
2018-10-11T20:24:14.504Z,8.80
2018-10-11T20:26:43.711Z,9.00
2018-10-11T20:29:13.633Z,9.33
2018-10-11T20:31:42.890Z,9.27
2018-10-11T20:34:12.074Z,8.83
2018-10-11T20:36:41.307Z,9.27
2018-10-11T20:39:11.255Z,9.80
2018-10-11T20:41:40.345Z,8.87
2018-10-11T20:44:09.505Z,9.63
2018-10-11T20:46:38.819Z,9.40
2018-10-11T20:49:08.566Z,8.80
2018-10-11T20:51:38.632Z,8.73
2018-10-11T20:54:07.668Z,8.43
2018-10-11T20:56:36.858Z,9.40
2018-10-11T20:59:06.303Z,9.30
2018-10-11T21:01:35.395Z,9.90
2018-10-11T21:04:04.463Z,9.07
2018-10-11T21:06:33.593Z,8.87
2018-10-11T21:09:02.744Z,8.27
2018-10-11T21:11:31.790Z,8.40
2018-10-11T21:14:01.670Z,9.93
2018-10-11T21:16:31.228Z,9.80
2018-10-11T21:19:00.490Z,8.10
2018-10-11T21:21:29.873Z,8.70
2018-10-11T21:23:58.951Z,9.30
2018-10-11T21:26:28.499Z,8.70
2018-10-11T21:28:57.981Z,10.00
2018-10-11T21:31:27.074Z,10.83
2018-10-11T21:33:56.208Z,11.40
2018-10-11T21:36:25.290Z,10.50
2018-10-11T21:38:54.478Z,11.10
2018-10-11T21:41:24.428Z,10.80
2018-10-11T21:43:53.566Z,11.83
2018-10-11T21:46:23.444Z,10.80
2018-10-11T21:53:31.116Z,10.70
2018-10-11T21:56:00.225Z,10.63
2018-10-11T21:58:29.299Z,10.63
2018-10-11T22:01:03.852Z,10.87
2018-10-11T22:03:33.500Z,11.27
2018-10-11T22:06:02.631Z,11.90
2018-10-11T22:08:31.756Z,11.33
2018-10-11T22:11:00.852Z,11.13
2018-10-11T22:13:29.924Z,11.00
2018-10-11T22:15:59.005Z,11.10
2018-10-11T22:18:28.624Z,11.13
2018-10-11T22:20:57.761Z,11.90
2018-10-11T22:23:26.785Z,11.30
2018-10-11T22:25:55.880Z,12.73
2018-10-11T22:28:25.133Z,11.83
2018-10-11T22:30:54.834Z,11.90
2018-10-11T22:33:24.614Z,11.37
2018-10-11T22:35:54.055Z,11.10
2018-10-11T22:38:23.259Z,10.67
2018-10-11T22:40:52.476Z,11.53
2018-10-11T22:43:21.661Z,12.10
2018-10-11T22:45:50.807Z,11.13
2018-10-11T22:48:19.880Z,11.40
2018-10-11T22:50:49.103Z,11.13
2018-10-11T22:53:18.303Z,12.03
2018-10-11T22:55:47.578Z,11.13
2018-10-11T22:58:16.991Z,11.80
2018-10-11T23:00:46.842Z,10.80
2018-10-11T23:03:16.096Z,11.80
2018-10-11T23:05:45.490Z,11.90
2018-10-11T23:08:14.538Z,10.03
2018-10-11T23:10:43.624Z,10.33
2018-10-11T23:13:12.712Z,9.20
2018-10-11T23:15:41.909Z,11.80
2018-10-11T23:18:11.146Z,11.03
2018-10-11T23:20:41.029Z,11.77
2018-10-11T23:23:10.709Z,11.87
2018-10-11T23:25:39.866Z,10.87
2018-10-11T23:28:09.043Z,11.17
2018-10-11T23:30:38.192Z,11.37
2018-10-11T23:33:07.989Z,10.40
2018-10-11T23:35:37.069Z,11.50
2018-10-11T23:38:06.799Z,10.67
2018-10-11T23:40:36.022Z,10.50
2018-10-11T23:43:05.256Z,11.57
2018-10-11T23:45:34.402Z,9.83
2018-10-11T23:48:03.497Z,11.23
2018-10-11T23:50:32.641Z,11.37
2018-10-11T23:53:01.889Z,11.33
2018-10-11T23:55:32.428Z,11.37
2018-10-11T23:58:02.320Z,10.97
